createdAt,value
2022-11-20T09:03:34.214Z,21.80
2022-11-20T09:06:01.197Z,19.63
2022-11-20T09:08:28.621Z,20.95
2022-11-20T09:10:55.709Z,18.85
2022-11-20T09:13:22.856Z,17.83
2022-11-20T09:15:59.650Z,20.42
2022-11-20T09:18:26.429Z,18.65
2022-11-20T09:20:52.919Z,17.60
2022-11-20T09:23:19.271Z,19.08
2022-11-20T09:25:47.129Z,18.85
2022-11-20T09:28:13.578Z,18.98
2022-11-20T09:30:40.073Z,20.48
2022-11-20T09:33:09.410Z,18.38
2022-11-20T09:35:37.311Z,18.48
2022-11-20T09:38:08.821Z,18.65
2022-11-20T09:40:36.322Z,18.77
2022-11-20T09:43:16.417Z,17.90
2022-11-20T09:45:45.699Z,14.18
2022-11-20T09:48:21.286Z,18.33
2022-11-20T09:50:56.034Z,17.33
2022-11-20T09:53:31.838Z,17.35
2022-11-20T09:55:58.501Z,18.20
2022-11-20T09:58:36.625Z,19.30
2022-11-20T10:01:11.165Z,18.98
2022-11-20T10:03:42.773Z,17.40
2022-11-20T10:06:11.957Z,19.02
2022-11-20T10:08:43.480Z,17.83
2022-11-20T10:11:33.032Z,20.05
2022-11-20T10:14:07.191Z,20.00
2022-11-20T10:16:51.989Z,19.08
2022-11-20T10:19:42.159Z,20.90
2022-11-20T10:22:23.586Z,19.00
2022-11-20T10:24:57.610Z,18.40
2022-11-20T10:27:23.967Z,19.73
2022-11-20T10:30:00.593Z,19.13
2022-11-20T10:32:32.209Z,20.55
2022-11-20T10:35:15.064Z,20.30
2022-11-20T10:37:43.965Z,20.13
2022-11-20T10:40:19.370Z,18.45
2022-11-20T10:42:47.920Z,21.08
2022-11-20T10:45:20.335Z,20.83
2022-11-20T10:47:46.679Z,22.02
2022-11-20T10:50:21.803Z,20.77
2022-11-20T10:52:48.974Z,21.00
2022-11-20T10:55:15.345Z,23.08
2022-11-20T10:57:52.757Z,22.90
2022-11-20T11:00:19.205Z,22.33
2022-11-20T11:02:52.740Z,22.98
2022-11-20T11:05:23.794Z,22.30
2022-11-20T11:07:51.467Z,23.90
2022-11-20T11:10:23.569Z,22.42
2022-11-20T11:12:49.896Z,21.10
2022-11-20T11:15:27.620Z,22.58
2022-11-20T11:17:54.525Z,23.48
2022-11-20T11:20:22.183Z,21.52
2022-11-20T11:22:48.678Z,19.50
2022-11-20T11:25:31.346Z,22.92
2022-11-20T11:28:01.953Z,23.20
2022-11-20T11:30:30.890Z,23.65
2022-11-20T11:33:03.873Z,25.20
2022-11-20T11:35:30.163Z,23.88
2022-11-20T11:38:04.126Z,24.58
2022-11-20T11:40:31.997Z,24.23
2022-11-20T11:42:59.759Z,24.92
2022-11-20T11:45:26.540Z,21.92
2022-11-20T11:47:54.555Z,25.65
2022-11-20T11:50:21.247Z,26.80
2022-11-20T11:52:56.833Z,27.58
2022-11-20T11:55:30.209Z,26.70
2022-11-20T11:58:05.623Z,27.90
2022-11-20T12:00:32.964Z,25.73
2022-11-20T12:03:05.645Z,25.63
2022-11-20T12:05:36.254Z,30.60
2022-11-20T12:08:12.304Z,28.25
2022-11-20T12:10:42.091Z,28.95
2022-11-20T12:13:34.795Z,29.42
2022-11-20T12:16:02.549Z,29.33
2022-11-20T12:18:29.477Z,30.50
2022-11-20T12:21:04.682Z,29.40
2022-11-20T12:23:33.689Z,27.40
2022-11-20T12:26:02.765Z,31.00
2022-11-20T12:28:29.084Z,36.08
2022-11-20T12:30:55.365Z,35.85
2022-11-20T12:33:21.680Z,30.98
2022-11-20T12:36:06.849Z,31.63
2022-11-20T12:38:40.771Z,31.63
2022-11-20T12:41:44.733Z,30.50
2022-11-20T12:44:41.731Z,29.58
2022-11-20T12:47:23.052Z,28.50
2022-11-20T12:49:56.040Z,32.20
2022-11-20T12:52:40.842Z,28.75
2022-11-20T12:55:13.888Z,29.52
2022-11-20T12:57:51.022Z,27.20
2022-11-20T13:00:21.820Z,32.75
2022-11-20T13:03:01.745Z,30.42
2022-11-20T13:05:47.130Z,32.88
2022-11-20T13:08:22.462Z,32.58
2022-11-20T13:10:56.557Z,29.30
2022-11-20T13:13:36.847Z,30.63
2022-11-20T13:16:03.249Z,27.48
2022-11-20T13:18:34.400Z,30.45
2022-11-20T13:21:00.842Z,27.17
2022-11-20T13:23:28.496Z,27.25
2022-11-20T13:26:07.202Z,51.78
2022-11-20T13:28:33.776Z,35.47
2022-11-20T13:31:00.418Z,32.78
2022-11-20T13:33:30.925Z,34.65
2022-11-20T13:36:07.979Z,32.78
2022-11-20T13:39:04.198Z,32.42
2022-11-20T13:41:36.196Z,31.48
2022-11-20T13:44:14.625Z,33.90
2022-11-20T13:46:46.743Z,31.70
2022-11-20T13:49:21.713Z,34.90
2022-11-20T13:51:52.029Z,32.03
2022-11-20T13:54:41.722Z,33.00
2022-11-20T13:57:17.357Z,33.90
2022-11-20T14:00:02.282Z,27.80
2022-11-20T14:02:37.254Z,30.60
2022-11-20T14:05:05.146Z,34.22
2022-11-20T14:07:43.027Z,34.60
2022-11-20T14:10:21.605Z,33.35
2022-11-20T14:12:48.805Z,30.02
2022-11-20T14:15:25.411Z,32.90
2022-11-20T14:17:53.071Z,33.58
2022-11-20T14:20:24.186Z,31.27
2022-11-20T14:22:51.984Z,32.83
2022-11-20T14:25:25.425Z,38.13
2022-11-20T14:27:56.717Z,29.73
2022-11-20T14:30:24.620Z,32.22
2022-11-20T14:32:52.998Z,27.83
2022-11-20T14:35:25.312Z,32.95
2022-11-20T14:37:52.106Z,34.47
2022-11-20T14:40:30.505Z,31.88
2022-11-20T14:42:57.623Z,34.67
2022-11-20T14:45:24.693Z,33.47
2022-11-20T14:47:56.808Z,30.60
2022-11-20T14:50:25.386Z,36.42
2022-11-20T14:52:55.824Z,35.85
2022-11-20T14:55:35.838Z,33.92
2022-11-20T14:58:03.956Z,35.25
2022-11-20T15:00:31.459Z,40.28
2022-11-20T15:02:58.196Z,70.75
2022-11-20T15:05:26.881Z,43.47
2022-11-20T15:08:13.436Z,32.10
2022-11-20T15:10:39.861Z,40.95
2022-11-20T15:13:13.046Z,42.80
2022-11-20T15:15:42.378Z,43.33
2022-11-20T15:18:15.959Z,43.13
2022-11-20T15:20:42.884Z,38.88
2022-11-20T15:23:12.975Z,43.13
2022-11-20T15:25:40.036Z,44.13
2022-11-20T15:28:14.474Z,45.75
2022-11-20T15:30:40.814Z,45.45
2022-11-20T15:33:08.930Z,67.28
2022-11-20T15:35:35.209Z,44.72
2022-11-20T15:38:01.553Z,45.88
2022-11-20T15:40:27.872Z,45.60
2022-11-20T15:43:13.323Z,41.53
2022-11-20T15:45:40.252Z,44.90
2022-11-20T15:48:11.019Z,42.28
2022-11-20T15:50:38.978Z,39.40
2022-11-20T15:53:05.799Z,40.50
2022-11-20T15:55:32.573Z,41.75
2022-11-20T15:57:58.875Z,44.22
2022-11-20T16:00:25.234Z,43.55
2022-11-20T16:02:51.524Z,39.67
2022-11-20T16:05:18.434Z,39.85
2022-11-20T16:07:44.771Z,43.75
2022-11-20T16:10:11.151Z,36.45
2022-11-20T16:12:56.134Z,32.30
2022-11-20T16:15:57.657Z,29.63
2022-11-20T16:18:24.412Z,31.08
2022-11-20T16:20:51.968Z,37.83
2022-11-20T16:23:18.767Z,34.28
2022-11-20T16:25:45.445Z,20.90
2022-11-20T16:28:17.443Z,32.95
2022-11-20T16:30:45.856Z,30.75
2022-11-20T16:33:13.247Z,25.77
2022-11-20T16:35:39.889Z,34.05
2022-11-20T16:38:06.415Z,35.75
2022-11-20T16:40:32.796Z,27.23
2022-11-20T16:43:06.958Z,35.50
2022-11-20T16:45:34.134Z,34.67
2022-11-20T16:48:00.526Z,29.77
2022-11-20T16:50:26.849Z,31.40
2022-11-20T16:52:53.175Z,27.98
2022-11-20T16:55:19.578Z,32.63
2022-11-20T16:57:45.908Z,39.08
2022-11-20T17:00:12.561Z,30.08
2022-11-20T17:02:38.937Z,35.05
2022-11-20T17:05:06.412Z,36.75
2022-11-20T17:07:32.760Z,25.15
2022-11-20T17:10:00.488Z,28.70
2022-11-20T17:12:26.842Z,38.20
2022-11-20T17:14:53.201Z,40.00
2022-11-20T17:17:19.550Z,32.35
2022-11-20T17:19:45.868Z,26.05
2022-11-20T17:22:12.174Z,34.65
2022-11-20T17:24:38.523Z,30.85
2022-11-20T17:27:04.846Z,38.00
2022-11-20T17:29:31.269Z,37.83
2022-11-20T17:31:57.557Z,33.55
2022-11-20T17:34:24.739Z,39.38
2022-11-20T17:36:51.228Z,28.08
2022-11-20T17:39:17.613Z,42.72
2022-11-20T17:41:43.976Z,42.88
2022-11-20T17:44:10.951Z,42.90
2022-11-20T17:46:37.318Z,43.58
2022-11-20T17:49:03.794Z,44.22
2022-11-20T17:51:31.242Z,34.63
2022-11-20T17:53:58.696Z,43.28
2022-11-20T17:56:43.662Z,50.78
2022-11-20T17:59:11.029Z,41.28
2022-11-20T18:01:37.680Z,46.33
2022-11-20T18:04:04.029Z,43.60
2022-11-20T18:06:30.496Z,36.30
2022-11-20T18:09:00.645Z,42.90
2022-11-20T18:11:27.794Z,33.55
2022-11-20T18:14:13.861Z,33.58
2022-11-20T18:16:47.317Z,24.05
2022-11-20T18:19:15.779Z,38.78
2022-11-20T18:21:42.108Z,38.13
2022-11-20T18:24:08.880Z,38.05
2022-11-20T18:26:38.744Z,37.45
2022-11-20T18:29:07.841Z,37.72
2022-11-20T18:31:34.201Z,32.08
2022-11-20T18:34:00.569Z,39.97
2022-11-20T18:36:28.081Z,39.47
2022-11-20T18:38:58.068Z,37.80
2022-11-20T18:41:45.088Z,36.35
2022-11-20T18:44:40.150Z,41.47
2022-11-20T18:47:13.949Z,41.10
2022-11-20T18:49:41.097Z,41.72
2022-11-20T18:52:07.507Z,35.65
2022-11-20T18:54:35.116Z,37.15
2022-11-20T18:57:01.430Z,39.90
2022-11-20T18:59:28.159Z,43.90
2022-11-20T19:01:54.787Z,43.95
2022-11-20T19:04:21.230Z,41.80
2022-11-20T19:06:52.723Z,44.28
2022-11-20T19:09:19.097Z,42.97
2022-11-20T19:11:45.412Z,43.97
2022-11-20T19:14:11.769Z,41.85
2022-11-20T19:16:38.327Z,29.27
2022-11-20T19:19:05.773Z,42.92
2022-11-20T19:21:32.245Z,43.58
2022-11-20T19:23:59.663Z,45.03
2022-11-20T19:26:26.295Z,45.58
2022-11-20T19:28:53.477Z,42.90
2022-11-20T19:31:24.977Z,44.47
2022-11-20T19:34:01.636Z,41.25
2022-11-20T19:36:32.028Z,40.53
2022-11-20T19:38:58.762Z,43.17
2022-11-20T19:41:29.199Z,44.90
2022-11-20T19:43:59.716Z,36.08
2022-11-20T19:46:26.718Z,34.78
2022-11-20T19:48:53.400Z,43.35
2022-11-20T19:51:21.254Z,43.20
2022-11-20T19:53:47.772Z,37.50
2022-11-20T19:56:14.780Z,42.63
2022-11-20T19:58:42.147Z,46.38
2022-11-20T20:01:12.398Z,44.35
2022-11-20T20:03:39.117Z,28.23
2022-11-20T20:06:07.333Z,38.88
2022-11-20T20:08:34.017Z,37.83
2022-11-20T20:11:00.444Z,38.33
2022-11-20T20:13:26.993Z,41.88
2022-11-20T20:15:53.310Z,37.75
2022-11-20T20:18:19.654Z,41.55
2022-11-20T20:20:46.047Z,46.30
2022-11-20T20:23:12.360Z,41.83
2022-11-20T20:25:38.720Z,41.78
2022-11-20T20:28:05.320Z,42.85
2022-11-20T20:30:31.608Z,40.35
2022-11-20T20:32:57.964Z,39.30
2022-11-20T20:35:24.524Z,42.25
2022-11-20T20:37:50.793Z,41.70
2022-11-20T20:40:18.881Z,42.50
2022-11-20T20:42:45.201Z,41.03
2022-11-20T20:45:11.481Z,41.17
2022-11-20T20:47:39.219Z,40.63
2022-11-20T20:50:06.555Z,43.58
2022-11-20T20:52:32.917Z,45.70
2022-11-20T20:54:59.285Z,47.05
2022-11-20T20:57:25.674Z,42.55
2022-11-20T20:59:55.495Z,42.17
2022-11-20T21:02:23.291Z,36.67
2022-11-20T21:04:49.933Z,38.60
2022-11-20T21:07:17.032Z,41.45
2022-11-20T21:09:43.340Z,45.25
2022-11-20T21:12:09.618Z,39.63
2022-11-20T21:14:36.154Z,42.85
2022-11-20T21:17:02.460Z,46.83
2022-11-20T21:19:29.054Z,40.35
2022-11-20T21:22:04.409Z,43.40
2022-11-20T21:24:34.936Z,44.03
2022-11-20T21:27:02.205Z,43.70
2022-11-20T21:29:29.228Z,47.58
2022-11-20T21:31:56.170Z,38.92
2022-11-20T21:34:23.354Z,40.95
2022-11-20T21:36:49.944Z,45.67
2022-11-20T21:39:17.038Z,39.13
2022-11-20T21:41:43.439Z,39.95
2022-11-20T21:46:58.140Z,45.05
2022-11-20T21:49:24.607Z,44.63
2022-11-20T21:51:51.056Z,43.15
2022-11-20T21:54:17.585Z,42.60
2022-11-20T21:56:43.920Z,43.65
2022-11-20T21:59:12.090Z,41.03
2022-11-20T22:01:38.826Z,44.25
2022-11-20T22:04:07.657Z,46.85
2022-11-20T22:06:34.539Z,39.47
2022-11-20T22:09:01.626Z,44.13
2022-11-20T22:11:28.057Z,45.45
2022-11-20T22:14:12.849Z,44.45
2022-11-20T22:16:39.244Z,44.75
2022-11-20T22:19:06.340Z,45.10
2022-11-20T22:21:32.959Z,41.85
2022-11-20T22:23:59.486Z,47.35
2022-11-20T22:26:26.861Z,48.40
2022-11-20T22:28:54.174Z,46.95
2022-11-20T22:31:21.260Z,46.78
2022-11-20T22:33:48.010Z,41.75
2022-11-20T22:36:15.435Z,42.45
2022-11-20T22:38:41.768Z,44.75
2022-11-20T22:41:14.394Z,42.88
2022-11-20T22:43:41.272Z,39.92
2022-11-20T22:46:08.754Z,40.13
2022-11-20T22:48:35.960Z,49.42
2022-11-20T22:51:07.153Z,50.55
2022-11-20T22:53:34.022Z,38.55
2022-11-20T22:56:01.477Z,46.95
2022-11-20T22:58:28.570Z,43.92
2022-11-20T23:00:55.235Z,45.63
2022-11-20T23:03:21.645Z,45.20
2022-11-20T23:05:48.034Z,46.22
2022-11-20T23:08:14.472Z,46.47
2022-11-20T23:10:40.764Z,45.88
2022-11-20T23:13:07.073Z,44.13
2022-11-20T23:15:34.366Z,44.72
2022-11-20T23:18:00.737Z,47.85
2022-11-20T23:20:27.041Z,43.35
2022-11-20T23:22:53.440Z,33.20
2022-11-20T23:25:19.774Z,44.78
2022-11-20T23:27:46.118Z,46.10
2022-11-20T23:30:12.538Z,45.72
2022-11-20T23:32:38.900Z,43.25
2022-11-20T23:35:05.273Z,43.58
2022-11-20T23:37:31.554Z,40.25
2022-11-20T23:39:57.924Z,40.63
2022-11-20T23:42:24.349Z,44.83
2022-11-20T23:44:50.706Z,45.15
2022-11-20T23:47:17.032Z,41.38
2022-11-20T23:49:43.321Z,45.70
2022-11-20T23:52:09.767Z,44.40
2022-11-20T23:54:36.085Z,44.63
2022-11-20T23:57:02.417Z,46.75
2022-11-20T23:59:28.770Z,43.60
